createdAt,value
2018-09-12T00:01:21.243Z,13.97
2018-09-12T00:03:50.449Z,10.70
2018-09-12T00:06:19.424Z,11.67
2018-09-12T00:08:49.536Z,10.63
2018-09-12T00:11:18.701Z,12.07
2018-09-12T00:13:48.143Z,10.90
2018-09-12T00:16:17.326Z,11.03
2018-09-12T00:18:46.366Z,11.47
2018-09-12T00:21:15.385Z,12.63
2018-09-12T00:23:44.508Z,16.63
2018-09-12T00:26:13.447Z,12.87
2018-09-12T00:28:42.412Z,11.27
2018-09-12T00:31:12.029Z,11.03
2018-09-12T00:33:43.553Z,12.33
2018-09-12T00:36:12.776Z,11.20
2018-09-12T00:38:42.015Z,10.90
2018-09-12T00:41:11.532Z,11.00
2018-09-12T00:43:40.917Z,12.30
2018-09-12T00:46:10.476Z,10.60
2018-09-12T00:48:39.415Z,12.53
2018-09-12T00:51:08.532Z,12.17
2018-09-12T00:53:37.673Z,9.77
2018-09-12T00:56:07.126Z,12.80
2018-09-12T00:58:36.429Z,10.13
2018-09-12T01:01:05.587Z,10.57
2018-09-12T01:03:34.716Z,12.87
2018-09-12T01:06:04.124Z,11.83
2018-09-12T01:08:32.975Z,11.70
2018-09-12T01:11:02.146Z,11.33
2018-09-12T01:13:31.393Z,13.63
2018-09-12T01:16:00.416Z,19.40
2018-09-12T01:18:29.451Z,20.60
2018-09-12T01:20:59.102Z,23.40
2018-09-12T01:23:27.991Z,23.10
2018-09-12T01:25:57.236Z,16.47
2018-09-12T01:28:26.598Z,17.80
2018-09-12T01:30:55.724Z,22.13
2018-09-12T01:33:24.652Z,17.40
2018-09-12T01:35:53.712Z,14.33
2018-09-12T01:38:23.120Z,16.07
2018-09-12T01:40:52.389Z,18.80
2018-09-12T01:43:21.923Z,11.87
2018-09-12T01:45:51.800Z,11.87
2018-09-12T01:48:21.017Z,12.80
2018-09-12T01:50:50.205Z,16.03
2018-09-12T01:53:19.308Z,12.90
2018-09-12T01:55:49.025Z,15.83
2018-09-12T01:58:21.070Z,25.13
2018-09-12T02:00:50.396Z,17.40
2018-09-12T02:03:19.573Z,16.57
2018-09-12T02:05:49.316Z,16.23
2018-09-12T02:08:18.198Z,13.20
2018-09-12T02:10:47.501Z,11.83
2018-09-12T02:13:16.796Z,13.23
2018-09-12T02:15:46.020Z,14.67
2018-09-12T02:18:15.400Z,15.87
2018-09-12T02:20:44.520Z,13.13
2018-09-12T02:23:13.667Z,13.83
2018-09-12T02:25:42.876Z,15.63
2018-09-12T02:28:11.794Z,16.73
2018-09-12T02:30:40.720Z,16.63
2018-09-12T02:33:09.813Z,15.00
2018-09-12T02:35:43.840Z,11.47
2018-09-12T02:38:13.254Z,13.63
2018-09-12T02:40:42.460Z,13.57
2018-09-12T02:43:11.610Z,12.30
2018-09-12T02:45:41.252Z,15.10
2018-09-12T02:48:10.462Z,15.10
2018-09-12T02:50:39.657Z,10.77
2018-09-12T02:53:08.860Z,14.10
2018-09-12T02:55:38.072Z,15.47
2018-09-12T02:58:07.080Z,10.83
2018-09-12T03:00:36.376Z,10.77
2018-09-12T03:03:06.568Z,13.07
2018-09-12T03:05:35.492Z,14.80
2018-09-12T03:08:04.444Z,14.27
2018-09-12T03:10:33.468Z,13.63
2018-09-12T03:13:02.466Z,13.53
2018-09-12T03:15:31.304Z,13.53
2018-09-12T03:18:00.358Z,12.60
2018-09-12T03:20:29.672Z,13.07
2018-09-12T03:22:59.273Z,12.50
2018-09-12T03:25:29.005Z,14.80
2018-09-12T03:27:58.156Z,13.47
2018-09-12T03:30:27.385Z,15.13
2018-09-12T03:32:56.488Z,15.80
2018-09-12T03:35:25.444Z,13.53
2018-09-12T03:37:54.357Z,13.63
2018-09-12T03:40:23.487Z,16.87
2018-09-12T03:42:52.625Z,18.47
2018-09-12T03:45:21.877Z,19.60
2018-09-12T03:47:51.303Z,15.13
2018-09-12T03:50:20.230Z,16.00
2018-09-12T03:52:49.088Z,12.90
2018-09-12T03:55:18.136Z,14.50
2018-09-12T03:57:47.065Z,13.80
2018-09-12T04:00:16.036Z,13.03
2018-09-12T04:02:45.111Z,15.30
2018-09-12T04:05:15.228Z,18.13
2018-09-12T04:07:44.240Z,17.87
2018-09-12T04:10:13.552Z,15.60
2018-09-12T04:12:42.903Z,17.97
2018-09-12T04:15:12.161Z,18.77
2018-09-12T04:17:41.372Z,18.43
2018-09-12T04:20:10.496Z,13.90
2018-09-12T04:22:39.415Z,17.13
2018-09-12T04:25:08.238Z,14.40
2018-09-12T04:27:37.072Z,18.43
2018-09-12T04:30:06.024Z,16.90
2018-09-12T04:32:34.953Z,18.83
2018-09-12T04:35:03.859Z,21.87
2018-09-12T04:37:32.954Z,18.60
2018-09-12T04:40:01.919Z,23.23
2018-09-12T04:42:30.841Z,15.80
2018-09-12T04:44:59.828Z,19.23
2018-09-12T04:47:29.088Z,18.97
2018-09-12T04:49:58.276Z,19.53
2018-09-12T04:52:27.629Z,16.27
2018-09-12T04:54:56.842Z,22.43
2018-09-12T04:57:25.676Z,23.50
2018-09-12T04:59:54.602Z,21.40
2018-09-12T05:02:23.534Z,24.37
2018-09-12T05:04:52.441Z,23.23
2018-09-12T05:07:21.345Z,21.87
2018-09-12T05:09:50.710Z,22.00
2018-09-12T05:12:19.685Z,21.60
2018-09-12T05:14:48.988Z,16.63
2018-09-12T05:17:18.024Z,18.87
2018-09-12T05:19:47.257Z,21.77
2018-09-12T05:22:16.234Z,16.80
2018-09-12T05:24:45.048Z,16.60
2018-09-12T05:27:14.024Z,13.53
2018-09-12T05:29:43.039Z,21.33
2018-09-12T05:32:11.843Z,15.13
2018-09-12T05:34:40.816Z,13.83
2018-09-12T05:37:09.908Z,18.37
2018-09-12T05:39:39.240Z,15.50
2018-09-12T05:42:08.459Z,16.17
2018-09-12T05:44:37.855Z,14.90
2018-09-12T05:47:07.191Z,16.67
2018-09-12T05:49:36.425Z,15.97
2018-09-12T05:52:05.404Z,17.23
2018-09-12T05:54:34.296Z,20.07
2018-09-12T05:57:04.200Z,17.37
2018-09-12T05:59:33.404Z,16.60
2018-09-12T06:02:02.752Z,17.87
2018-09-12T06:04:32.101Z,15.90
2018-09-12T06:07:01.838Z,17.57
2018-09-12T06:09:31.165Z,13.63
2018-09-12T06:12:00.319Z,21.00
2018-09-12T06:14:29.640Z,13.60
2018-09-12T06:16:58.840Z,14.77
2018-09-12T06:19:28.141Z,15.47
2018-09-12T06:21:57.337Z,18.53
2018-09-12T06:24:26.192Z,18.77
2018-09-12T06:26:55.151Z,17.13
2018-09-12T06:29:24.379Z,15.13
2018-09-12T06:31:53.896Z,25.97
2018-09-12T06:34:23.085Z,20.47
2018-09-12T06:36:52.744Z,19.60
2018-09-12T06:39:21.939Z,19.80
2018-09-12T06:41:51.176Z,19.53
2018-09-12T06:44:20.373Z,21.70
2018-09-12T06:46:49.966Z,16.47
2018-09-12T06:49:19.469Z,21.70
2018-09-12T06:51:49.041Z,19.90
2018-09-12T06:54:18.354Z,15.63
2018-09-12T06:56:47.549Z,18.03
2018-09-12T06:59:16.924Z,15.70
2018-09-12T07:01:46.570Z,27.30
2018-09-12T07:04:16.042Z,19.17
2018-09-12T07:06:45.496Z,18.33
2018-09-12T07:09:15.162Z,18.20
2018-09-12T07:11:44.308Z,17.93
2018-09-12T07:14:13.772Z,14.47
2018-09-12T07:16:42.945Z,16.37
2018-09-12T07:19:12.276Z,20.67
2018-09-12T07:21:41.945Z,21.00
2018-09-12T07:24:11.457Z,18.83
2018-09-12T07:26:40.617Z,18.03
2018-09-12T07:29:09.815Z,17.13
2018-09-12T07:31:39.138Z,18.97
2018-09-12T07:34:08.805Z,14.40
2018-09-12T07:36:37.985Z,13.63
2018-09-12T07:39:10.511Z,18.60
2018-09-12T07:41:39.962Z,21.50
2018-09-12T07:44:09.242Z,13.43
2018-09-12T07:46:38.300Z,13.60
2018-09-12T07:49:08.659Z,16.10
2018-09-12T07:51:37.774Z,15.37
2018-09-12T07:54:06.961Z,15.33
2018-09-12T07:56:36.177Z,18.87
2018-09-12T07:59:05.413Z,15.87
2018-09-12T08:01:34.604Z,16.00
2018-09-12T08:04:03.756Z,18.30
2018-09-12T08:06:33.305Z,25.77
2018-09-12T08:09:02.517Z,23.13
2018-09-12T08:11:32.177Z,18.43
2018-09-12T08:14:01.446Z,22.80
2018-09-12T08:16:30.556Z,27.77
2018-09-12T08:18:59.776Z,24.93
2018-09-12T08:21:28.981Z,18.90
2018-09-12T08:23:58.477Z,19.47
2018-09-12T08:26:28.003Z,24.70
2018-09-12T08:28:57.242Z,16.43
2018-09-12T08:31:27.096Z,14.37
2018-09-12T08:33:56.374Z,16.20
2018-09-12T08:36:25.627Z,21.03
2018-09-12T08:38:54.997Z,18.80
2018-09-12T08:41:24.642Z,21.30
2018-09-12T08:43:54.093Z,19.17
2018-09-12T08:46:23.180Z,18.33
2018-09-12T08:48:52.453Z,13.33
2018-09-12T08:51:21.505Z,19.27
2018-09-12T08:53:50.929Z,12.93
2018-09-12T08:56:20.412Z,14.80
2018-09-12T08:58:49.697Z,20.40
2018-09-12T09:01:18.921Z,14.83
2018-09-12T09:03:47.984Z,14.83
2018-09-12T09:06:17.185Z,15.50
2018-09-12T09:08:46.562Z,18.43
2018-09-12T09:11:16.038Z,15.77
2018-09-12T09:13:45.302Z,15.13
2018-09-12T09:16:14.668Z,12.87
2018-09-12T09:18:43.869Z,16.37
2018-09-12T09:21:13.412Z,15.43
2018-09-12T09:23:42.605Z,16.53
2018-09-12T09:26:11.808Z,18.67
2018-09-12T09:28:40.997Z,18.30
2018-09-12T09:31:10.785Z,17.40
2018-09-12T09:33:39.916Z,14.13
2018-09-12T09:36:09.220Z,14.17
2018-09-12T09:38:38.340Z,19.73
2018-09-12T09:41:07.468Z,15.30
2018-09-12T09:43:36.672Z,16.20
2018-09-12T09:46:06.688Z,15.87
2018-09-12T09:48:35.789Z,13.07
2018-09-12T09:51:05.065Z,14.80
2018-09-12T09:53:34.485Z,14.10
2018-09-12T09:56:04.413Z,15.20
2018-09-12T09:58:33.614Z,14.03
2018-09-12T10:01:07.965Z,15.43
2018-09-12T10:03:42.788Z,12.97
2018-09-12T10:06:17.028Z,15.13
2018-09-12T10:08:51.470Z,14.77
2018-09-12T10:11:20.840Z,18.03
2018-09-12T10:13:50.502Z,16.70
2018-09-12T10:16:20.089Z,13.50
2018-09-12T10:18:49.569Z,17.10
2018-09-12T10:21:19.476Z,15.23
2018-09-12T10:23:48.680Z,17.23
2018-09-12T10:26:18.324Z,13.47
2018-09-12T10:28:47.531Z,23.33
2018-09-12T10:31:16.648Z,15.73
2018-09-12T10:33:45.941Z,15.97
2018-09-12T10:36:14.950Z,13.97
2018-09-12T10:38:44.002Z,12.77
2018-09-12T10:41:13.377Z,16.80
2018-09-12T10:43:42.316Z,11.33
2018-09-12T10:46:11.776Z,14.17
2018-09-12T10:48:41.147Z,11.20
2018-09-12T10:51:10.440Z,15.50
2018-09-12T10:53:39.797Z,11.93
2018-09-12T10:56:09.231Z,11.60
2018-09-12T10:58:38.753Z,14.07
2018-09-12T11:01:08.740Z,12.73
2018-09-12T11:03:38.356Z,13.00
2018-09-12T11:06:07.648Z,13.00
2018-09-12T11:08:37.057Z,11.37
2018-09-12T11:11:06.294Z,11.20
2018-09-12T11:13:35.607Z,14.77
2018-09-12T11:16:04.801Z,10.97
2018-09-12T11:18:34.273Z,12.93
2018-09-12T11:21:03.596Z,11.57
2018-09-12T11:23:33.005Z,11.93
2018-09-12T11:26:02.200Z,11.67
2018-09-12T11:28:31.326Z,12.03
2018-09-12T11:31:00.520Z,11.43
2018-09-12T11:33:30.965Z,24.93
2018-09-12T11:36:00.413Z,23.43
2018-09-12T11:38:29.597Z,25.60
2018-09-12T11:40:58.767Z,31.20
2018-09-12T11:43:28.076Z,24.40
2018-09-12T11:45:57.680Z,24.23
2018-09-12T11:48:26.914Z,33.77
2018-09-12T11:50:56.233Z,32.13
2018-09-12T11:53:25.595Z,30.83
2018-09-12T11:55:54.684Z,29.20
2018-09-12T11:58:23.948Z,27.73
2018-09-12T12:00:53.269Z,26.87
2018-09-12T12:03:22.485Z,26.70
2018-09-12T12:05:51.632Z,29.63
2018-09-12T12:08:20.797Z,28.30
2018-09-12T12:10:50.120Z,26.93
2018-09-12T12:13:19.291Z,22.20
2018-09-12T12:15:48.484Z,20.53
2018-09-12T12:18:18.016Z,21.47
2018-09-12T12:20:47.237Z,19.03
2018-09-12T12:23:16.469Z,20.63
2018-09-12T12:25:45.602Z,22.30
2018-09-12T12:28:14.805Z,18.97
2018-09-12T12:30:43.952Z,17.73
2018-09-12T12:33:13.396Z,27.50
2018-09-12T12:35:42.547Z,22.67
2018-09-12T12:38:11.766Z,23.30
2018-09-12T12:40:40.977Z,18.90
2018-09-12T12:43:10.216Z,20.43
2018-09-12T12:45:39.432Z,16.70
2018-09-12T12:48:08.633Z,20.27
2018-09-12T12:50:37.734Z,23.47
2018-09-12T12:53:07.475Z,17.93
2018-09-12T12:55:36.941Z,17.57
2018-09-12T12:58:06.114Z,27.10
2018-09-12T13:00:35.357Z,24.60
2018-09-12T13:03:04.760Z,18.27
2018-09-12T13:05:34.201Z,15.73
2018-09-12T13:08:03.349Z,16.90
2018-09-12T13:10:32.433Z,16.47
2018-09-12T13:13:01.743Z,13.73
2018-09-12T13:15:30.813Z,15.13
2018-09-12T13:18:00.389Z,16.07
2018-09-12T13:20:29.546Z,16.30
2018-09-12T13:22:58.917Z,20.03
2018-09-12T13:25:28.241Z,13.87
2018-09-12T13:27:57.678Z,12.37
2018-09-12T13:30:26.861Z,17.53
2018-09-12T13:32:56.065Z,12.97
2018-09-12T13:35:25.539Z,14.93
2018-09-12T13:37:54.838Z,12.10
2018-09-12T13:40:24.477Z,12.70
2018-09-12T13:42:53.590Z,12.50
2018-09-12T13:45:22.758Z,13.97
2018-09-12T13:47:52.249Z,14.77
2018-09-12T13:50:21.389Z,15.00
2018-09-12T13:52:50.789Z,17.53
2018-09-12T13:55:20.017Z,18.87
2018-09-12T13:57:49.200Z,19.37
2018-09-12T14:00:18.494Z,19.80
2018-09-12T14:02:47.711Z,26.50
2018-09-12T14:05:16.864Z,26.77
2018-09-12T14:07:46.113Z,20.30
2018-09-12T14:10:15.392Z,24.73
2018-09-12T14:12:44.373Z,19.00
2018-09-12T14:15:13.524Z,20.30
2018-09-12T14:17:43.059Z,17.07
2018-09-12T14:20:12.238Z,23.40
2018-09-12T14:22:41.274Z,21.10
2018-09-12T14:25:10.240Z,15.53
2018-09-12T14:27:39.344Z,18.93
2018-09-12T14:30:08.399Z,16.40
2018-09-12T14:32:37.802Z,17.03
2018-09-12T14:35:06.941Z,18.67
2018-09-12T14:37:35.890Z,18.53
2018-09-12T14:40:04.895Z,16.67
2018-09-12T14:42:34.008Z,15.27
2018-09-12T14:45:03.061Z,15.70
2018-09-12T14:47:32.128Z,14.30
2018-09-12T14:50:01.016Z,17.77
2018-09-12T14:52:29.819Z,13.70
2018-09-12T14:54:59.012Z,13.37
2018-09-12T14:57:28.160Z,13.17
2018-09-12T14:59:57.027Z,12.97
2018-09-12T15:02:25.944Z,14.07
2018-09-12T15:04:55.509Z,13.23
2018-09-12T15:07:24.645Z,14.87
2018-09-12T15:09:53.580Z,13.93
2018-09-12T15:12:22.366Z,13.20
2018-09-12T15:14:51.681Z,14.73
2018-09-12T15:17:20.603Z,14.03
2018-09-12T15:19:49.498Z,14.73
2018-09-12T15:22:18.511Z,14.67
2018-09-12T15:24:47.426Z,14.30
2018-09-12T15:27:16.472Z,13.60
2018-09-12T15:29:45.377Z,13.30
2018-09-12T15:32:14.286Z,14.33
2018-09-12T15:34:43.192Z,16.40
2018-09-12T15:37:12.107Z,16.17
2018-09-12T15:39:40.912Z,17.73
2018-09-12T15:42:09.800Z,17.27
2018-09-12T15:44:38.831Z,16.53
2018-09-12T15:47:08.244Z,17.47
2018-09-12T15:49:37.748Z,15.87
2018-09-12T15:52:06.933Z,17.90
2018-09-12T15:54:35.835Z,17.03
2018-09-12T15:57:04.980Z,16.17
2018-09-12T15:59:34.121Z,18.13
2018-09-12T16:02:03.907Z,19.13
2018-09-12T16:04:33.071Z,16.43
2018-09-12T16:07:02.322Z,17.27
2018-09-12T16:09:31.234Z,16.27
2018-09-12T16:12:00.320Z,17.20
2018-09-12T16:14:29.526Z,18.03
2018-09-12T16:16:58.727Z,16.83
2018-09-12T16:19:27.927Z,17.93
2018-09-12T16:21:57.073Z,17.23
2018-09-12T16:24:26.568Z,17.83
2018-09-12T16:26:55.434Z,18.67
2018-09-12T16:29:24.818Z,19.43
2018-09-12T16:31:54.167Z,21.20
2018-09-12T16:34:23.604Z,20.40
2018-09-12T16:36:52.437Z,18.70
2018-09-12T16:39:21.290Z,18.20
2018-09-12T16:41:50.394Z,17.93
2018-09-12T16:44:19.327Z,21.60
2018-09-12T16:46:48.220Z,21.93
2018-09-12T16:49:17.199Z,19.30
2018-09-12T16:51:46.133Z,18.97
2018-09-12T16:54:15.325Z,19.33
2018-09-12T16:56:44.476Z,19.03
2018-09-12T16:59:13.796Z,19.00
2018-09-12T17:01:43.052Z,20.77
2018-09-12T17:04:12.634Z,18.57
2018-09-12T17:06:41.592Z,21.73
2018-09-12T17:09:11.606Z,19.17
2018-09-12T17:11:40.599Z,20.23
2018-09-12T17:14:10.030Z,20.13
2018-09-12T17:16:38.852Z,19.83
2018-09-12T17:19:08.272Z,24.17
2018-09-12T17:21:37.240Z,21.43
2018-09-12T17:24:06.216Z,19.77
2018-09-12T17:26:35.212Z,21.47
2018-09-12T17:29:04.260Z,21.37
2018-09-12T17:31:33.160Z,23.57
2018-09-12T17:34:02.291Z,23.77
2018-09-12T17:36:31.144Z,22.20
2018-09-12T17:39:00.137Z,22.60
2018-09-12T17:41:29.125Z,21.87
2018-09-12T17:43:58.117Z,23.40
2018-09-12T17:46:27.352Z,24.77
2018-09-12T17:48:56.295Z,24.40
2018-09-12T17:51:25.225Z,22.50
2018-09-12T17:53:54.156Z,23.07
2018-09-12T17:56:23.456Z,23.63
2018-09-12T17:58:52.300Z,25.57
2018-09-12T18:01:21.563Z,23.60
2018-09-12T18:03:50.631Z,28.90
2018-09-12T18:06:19.920Z,25.33
2018-09-12T18:08:48.827Z,27.80
2018-09-12T18:11:17.695Z,23.97
2018-09-12T18:13:47.619Z,24.87
2018-09-12T18:16:16.776Z,24.70
2018-09-12T18:18:45.673Z,24.00
2018-09-12T18:21:14.612Z,24.07
2018-09-12T18:23:43.592Z,27.90
2018-09-12T18:26:12.657Z,22.97
2018-09-12T18:28:41.583Z,23.33
2018-09-12T18:31:10.416Z,22.47
2018-09-12T18:33:39.329Z,23.40
2018-09-12T18:36:08.690Z,25.90
2018-09-12T18:38:37.929Z,24.77
2018-09-12T18:41:06.807Z,22.67
2018-09-12T18:43:35.745Z,26.37
2018-09-12T18:46:04.638Z,22.43
2018-09-12T18:48:33.635Z,26.10
2018-09-12T18:51:09.335Z,23.13
2018-09-12T18:53:38.738Z,25.27
2018-09-12T18:56:08.160Z,23.57
2018-09-12T18:58:37.417Z,19.90
2018-09-12T19:01:06.361Z,23.03
2018-09-12T19:03:35.392Z,21.00
2018-09-12T19:06:04.422Z,20.67
2018-09-12T19:08:33.298Z,20.77
2018-09-12T19:11:02.204Z,18.67
2018-09-12T19:13:31.221Z,20.17
2018-09-12T19:16:00.112Z,20.60
2018-09-12T19:18:29.163Z,19.87
2018-09-12T19:20:58.133Z,22.33
2018-09-12T19:23:27.435Z,21.33
2018-09-12T19:25:56.315Z,17.77
2018-09-12T19:28:25.594Z,17.03
2018-09-12T19:30:54.836Z,16.73
2018-09-12T19:33:24.461Z,17.50
2018-09-12T19:35:53.457Z,19.30
2018-09-12T19:38:22.520Z,17.90
2018-09-12T19:40:51.724Z,18.13
2018-09-12T19:43:20.672Z,22.33
2018-09-12T19:45:49.499Z,21.23
2018-09-12T19:48:18.771Z,24.73
2018-09-12T19:50:47.644Z,20.70
2018-09-12T19:53:17.427Z,20.40
2018-09-12T19:55:46.271Z,23.80
2018-09-12T19:58:15.152Z,22.87
2018-09-12T20:00:44.415Z,19.47
2018-09-12T20:03:13.460Z,18.93
2018-09-12T20:05:42.880Z,20.00
2018-09-12T20:08:11.974Z,18.67
2018-09-12T20:10:41.266Z,20.17
2018-09-12T20:13:10.419Z,19.60
2018-09-12T20:15:39.570Z,23.53
2018-09-12T20:18:09.001Z,22.50
2018-09-12T20:20:38.258Z,21.97
2018-09-12T20:23:08.172Z,20.87
2018-09-12T20:25:37.404Z,22.53
2018-09-12T20:28:06.734Z,21.77
2018-09-12T20:30:35.908Z,23.63
2018-09-12T20:33:05.195Z,23.70
2018-09-12T20:35:34.331Z,21.80
2018-09-12T20:38:03.496Z,23.33
2018-09-12T20:40:32.929Z,25.17
2018-09-12T20:43:02.296Z,24.37
2018-09-12T20:45:31.578Z,22.73
2018-09-12T20:48:00.505Z,26.33
2018-09-12T20:50:29.459Z,21.00
2018-09-12T20:52:58.582Z,21.47
2018-09-12T20:55:27.532Z,24.20
2018-09-12T20:57:56.467Z,22.07
2018-09-12T21:00:25.361Z,23.57
2018-09-12T21:02:54.297Z,22.57
2018-09-12T21:05:23.098Z,27.70
2018-09-12T21:07:51.972Z,21.70
2018-09-12T21:10:21.209Z,23.50
2018-09-12T21:12:50.186Z,21.40
2018-09-12T21:15:19.387Z,24.67
2018-09-12T21:17:48.412Z,20.40
2018-09-12T21:20:17.435Z,26.93
2018-09-12T21:22:46.756Z,21.73
2018-09-12T21:25:15.885Z,26.00
2018-09-12T21:27:45.019Z,21.67
2018-09-12T21:30:14.430Z,22.70
2018-09-12T21:32:43.735Z,23.80
2018-09-12T21:35:12.905Z,23.27
2018-09-12T21:37:42.069Z,22.73
2018-09-12T21:40:11.228Z,22.07
2018-09-12T21:42:40.292Z,25.80
2018-09-12T21:45:09.744Z,20.87
2018-09-12T21:47:38.592Z,21.80
2018-09-12T21:50:07.477Z,23.87
2018-09-12T21:52:36.765Z,21.27
2018-09-12T21:55:05.884Z,22.00
2018-09-12T21:57:34.833Z,22.53
2018-09-12T22:00:03.664Z,20.17
2018-09-12T22:02:32.656Z,23.53
2018-09-12T22:05:01.584Z,20.13
2018-09-12T22:07:30.497Z,19.87
2018-09-12T22:09:59.613Z,20.13
2018-09-12T22:12:28.467Z,19.03
2018-09-12T22:14:57.520Z,20.40
2018-09-12T22:17:26.608Z,21.30
2018-09-12T22:19:55.732Z,22.93
2018-09-12T22:22:24.737Z,22.37
2018-09-12T22:24:54.163Z,23.37
2018-09-12T22:27:23.404Z,21.77
2018-09-12T22:29:52.764Z,22.27
2018-09-12T22:32:21.829Z,22.97
2018-09-12T22:34:51.027Z,23.07
2018-09-12T22:37:20.051Z,20.20
2018-09-12T22:39:49.251Z,22.33
2018-09-12T22:42:18.408Z,24.00
2018-09-12T22:44:47.524Z,23.33
2018-09-12T22:47:16.449Z,22.83
2018-09-12T22:49:45.622Z,21.60
2018-09-12T22:52:14.484Z,22.60
2018-09-12T22:54:43.588Z,21.90
2018-09-12T22:57:12.680Z,20.70
2018-09-12T22:59:41.905Z,27.00
2018-09-12T23:02:10.783Z,35.43
2018-09-12T23:04:39.583Z,26.73
2018-09-12T23:07:08.519Z,21.80
2018-09-12T23:09:37.900Z,23.80
2018-09-12T23:12:06.848Z,23.37
2018-09-12T23:14:35.792Z,24.27
2018-09-12T23:17:04.761Z,21.53
2018-09-12T23:19:33.724Z,19.83
2018-09-12T23:22:02.636Z,19.13
2018-09-12T23:24:31.535Z,20.63
2018-09-12T23:27:00.456Z,20.07
2018-09-12T23:29:29.452Z,21.17
2018-09-12T23:31:58.799Z,20.47
2018-09-12T23:34:28.032Z,20.93
2018-09-12T23:36:57.319Z,20.27
2018-09-12T23:39:26.539Z,18.17
2018-09-12T23:41:55.923Z,17.53
2018-09-12T23:44:25.120Z,18.37
2018-09-12T23:46:54.068Z,19.13
2018-09-12T23:49:23.176Z,19.47
2018-09-12T23:51:52.252Z,19.67
2018-09-12T23:54:21.096Z,19.47
2018-09-12T23:56:50.279Z,21.73
2018-09-12T23:59:19.212Z,19.03
